Time;durP1;ratioP1;P1;durP2;ratioP2;P2;SDS_P1;SDS_P2;PMS_P1;PMS_P2;Temp;Humidity;BMP_temperature;BMP_pressure;BME280_temperature;BME280_humidity;BME280_pressure;Samples;Min_cycle;Max_cycle;Signal;HPM_P1;HPM_P2
2023/10/19 00:00:33;;;;;;;9.75;4.25;;;8.20;99.90;;;;;;5056301;28;20095;-63
2023/10/19 00:03:02;;;;;;;6.68;4.13;;;8.20;99.90;;;;;;5043838;28;20510;-62
2023/10/19 00:05:32;;;;;;;12.30;4.95;;;8.10;99.90;;;;;;5070214;28;20045;-62
2023/10/19 00:07:59;;;;;;;8.10;4.43;;;8.20;99.90;;;;;;5058722;28;20053;-62
2023/10/19 00:10:29;;;;;;;6.63;4.88;;;8.20;99.90;;;;;;5058573;28;20479;-63
2023/10/19 00:13:05;;;;;;;10.95;5.00;;;8.10;99.90;;;;;;5058144;28;20037;-62
2023/10/19 00:15:40;;;;;;;6.28;4.45;;;8.10;99.90;;;;;;5066372;28;20785;-62
2023/10/19 00:23:18;;;;;;;6.28;4.97;;;8.10;99.90;;;;;;5066312;28;20055;-62
2023/10/19 00:25:49;;;;;;;9.27;4.28;;;8.10;99.90;;;;;;5059828;28;20450;-62
2023/10/19 00:28:17;;;;;;;7.00;4.47;;;8.10;99.90;;;;;;5061747;28;20120;-63
2023/10/19 00:30:45;;;;;;;6.47;4.63;;;8.10;99.90;;;;;;5069607;28;20053;-63
2023/10/19 00:33:21;;;;;;;5.03;4.15;;;8.10;99.90;;;;;;5045943;28;20134;-63
2023/10/19 00:36:06;;;;;;;8.10;5.47;;;8.10;99.90;;;;;;5068903;28;20177;-63
2023/10/19 00:41:11;;;;;;;9.10;4.57;;;8.10;99.90;;;;;;5056518;28;20064;-62
2023/10/19 00:43:43;;;;;;;5.55;4.38;;;8.00;99.90;;;;;;5062637;28;20530;-62
2023/10/19 00:48:53;;;;;;;6.15;4.63;;;8.10;99.90;;;;;;5069477;28;20052;-62
2023/10/19 00:54:10;;;;;;;7.68;4.38;;;8.00;99.90;;;;;;5052183;28;20086;-62
2023/10/19 00:56:37;;;;;;;5.18;4.55;;;8.00;99.90;;;;;;5067041;28;20036;-62
2023/10/19 00:59:15;;;;;;;7.85;4.90;;;8.00;99.90;;;;;;5022744;28;20046;-62
2023/10/19 01:01:45;;;;;;;9.50;4.80;;;8.00;99.90;;;;;;5045518;28;20083;-62
2023/10/19 01:04:20;;;;;;;5.95;4.45;;;8.00;99.90;;;;;;5065512;28;20535;-61
2023/10/19 01:07:00;;;;;;;9.13;4.32;;;8.00;99.90;;;;;;5062945;28;20147;-62
2023/10/19 01:09:28;;;;;;;8.13;5.30;;;8.00;99.90;;;;;;5068935;28;20537;-62
2023/10/19 01:11:54;;;;;;;10.18;5.75;;;8.00;99.90;;;;;;5067558;28;20041;-61
2023/10/19 01:14:27;;;;;;;8.30;4.88;;;8.00;99.90;;;;;;5050334;28;20040;-62
2023/10/19 01:16:56;;;;;;;7.05;4.95;;;8.00;99.90;;;;;;5067750;28;20048;-62
2023/10/19 01:19:27;;;;;;;8.25;5.35;;;8.10;99.90;;;;;;5024489;28;20822;-62
2023/10/19 01:21:53;;;;;;;;;;;8.00;99.90;;;;;;5051280;28;20101;-62
2023/10/19 01:24:41;;;;;;;7.18;5.55;;;8.00;99.90;;;;;;5067051;28;19924;-62
2023/10/19 01:27:10;;;;;;;6.90;5.38;;;8.00;99.90;;;;;;5058631;28;20064;-62
2023/10/19 01:29:38;;;;;;;7.30;4.82;;;8.00;99.90;;;;;;5063118;28;20048;-62
2023/10/19 01:32:06;;;;;;;7.88;5.90;;;7.90;99.90;;;;;;5053201;28;20394;-62
2023/10/19 01:34:33;;;;;;;10.27;6.32;;;7.90;99.90;;;;;;5067980;28;20549;-62
2023/10/19 01:37:03;;;;;;;8.50;5.10;;;8.00;99.90;;;;;;5045092;28;20125;-62
2023/10/19 01:39:35;;;;;;;;;;;8.00;99.90;;;;;;5069007;28;20059;-62
2023/10/19 01:42:04;;;;;;;9.90;5.05;;;7.90;99.90;;;;;;5067012;28;19947;-62
2023/10/19 01:44:30;;;;;;;7.43;6.10;;;7.90;99.90;;;;;;5059456;28;20422;-82
2023/10/19 01:46:56;;;;;;;5.60;4.88;;;8.00;99.90;;;;;;5066743;28;20115;-62
2023/10/19 01:49:28;;;;;;;7.35;5.32;;;8.00;99.90;;;;;;5033603;28;20119;-62
2023/10/19 01:51:54;;;;;;;8.05;5.90;;;8.00;99.90;;;;;;5048761;28;20067;-62
2023/10/19 01:54:24;;;;;;;7.05;5.40;;;8.00;99.90;;;;;;5044842;28;20049;-62
2023/10/19 01:56:56;;;;;;;10.55;5.78;;;7.90;99.90;;;;;;5064183;28;20049;-63
2023/10/19 01:59:27;;;;;;;9.00;5.65;;;7.90;99.90;;;;;;5066147;28;20080;-62
2023/10/19 02:01:54;;;;;;;8.38;5.72;;;8.00;99.90;;;;;;5053984;28;20041;-63
2023/10/19 02:04:21;;;;;;;8.23;5.93;;;8.00;99.90;;;;;;5047496;28;20040;-64
2023/10/19 02:06:48;;;;;;;9.15;5.57;;;7.90;99.90;;;;;;5046987;28;20079;-63
2023/10/19 02:11:46;;;;;;;6.63;5.32;;;8.00;99.90;;;;;;5037346;28;20416;-62
2023/10/19 02:14:14;;;;;;;11.32;5.80;;;7.90;99.90;;;;;;5066371;28;20040;-63
2023/10/19 02:16:47;;;;;;;9.65;5.10;;;7.90;99.90;;;;;;5053519;28;20044;-63
2023/10/19 02:19:14;;;;;;;7.55;5.55;;;8.00;99.90;;;;;;5067573;28;20393;-62
2023/10/19 02:21:40;;;;;;;5.70;4.68;;;7.80;99.90;;;;;;5058651;28;20509;-62
2023/10/19 02:24:14;;;;;;;8.00;5.45;;;7.90;99.90;;;;;;5045267;28;20116;-62
2023/10/19 02:26:40;;;;;;;9.98;5.15;;;7.80;99.90;;;;;;5061751;28;20155;-63
2023/10/19 02:29:09;;;;;;;6.20;5.28;;;7.90;99.90;;;;;;5066803;28;20036;-63
2023/10/19 02:31:39;;;;;;;7.88;5.68;;;7.90;99.90;;;;;;5061654;28;20479;-63
2023/10/19 02:34:07;;;;;;;10.02;5.95;;;7.90;99.90;;;;;;5046165;28;20580;-63
2023/10/19 02:36:33;;;;;;;9.05;5.13;;;7.90;99.90;;;;;;5062969;28;20067;-63
2023/10/19 02:39:07;;;;;;;7.35;5.38;;;7.90;99.90;;;;;;5066163;28;20094;-63
2023/10/19 02:41:36;;;;;;;6.00;4.85;;;7.90;99.90;;;;;;5067257;28;20044;-63
2023/10/19 02:46:43;;;;;;;8.82;5.28;;;7.80;99.90;;;;;;5051659;28;20167;-64
2023/10/19 02:49:14;;;;;;;7.15;5.85;;;7.80;99.90;;;;;;5060774;28;20045;-63
2023/10/19 02:51:44;;;;;;;6.03;4.57;;;7.90;99.90;;;;;;5061209;28;20049;-63
2023/10/19 02:54:17;;;;;;;;;;;7.90;99.90;;;;;;5050552;28;20052;-63
2023/10/19 02:56:47;;;;;;;9.38;5.25;;;7.80;99.90;;;;;;5066756;28;19931;-63
2023/10/19 02:59:15;;;;;;;6.40;4.82;;;7.80;99.90;;;;;;5066744;28;20113;-63
2023/10/19 03:01:44;;;;;;;6.30;4.75;;;7.90;99.90;;;;;;5055094;28;20052;-63
2023/10/19 03:04:12;;;;;;;7.03;5.47;;;7.90;99.90;;;;;;5058358;28;20044;-63
2023/10/19 03:06:40;;;;;;;6.38;4.95;;;7.80;99.90;;;;;;5071221;28;20044;-63
2023/10/19 03:09:13;;;;;;;7.70;4.20;;;7.80;99.90;;;;;;5068247;28;20108;-64
2023/10/19 03:11:44;;;;;;;8.48;4.65;;;7.80;99.90;;;;;;5059283;28;20048;-64
2023/10/19 03:14:13;;;;;;;6.78;4.25;;;7.80;99.90;;;;;;5031424;28;20495;-64
2023/10/19 03:16:42;;;;;;;3.22;2.92;;;7.90;99.90;;;;;;5070202;28;20051;-64
2023/10/19 03:19:07;;;;;;;6.15;4.28;;;7.90;99.90;;;;;;5071332;28;20051;-63
2023/10/19 03:21:41;;;;;;;7.30;4.35;;;7.90;99.90;;;;;;5051016;28;20847;-64
2023/10/19 03:24:23;;;;;;;13.75;3.95;;;7.80;99.90;;;;;;5071196;28;20190;-64
2023/10/19 03:26:54;;;;;;;4.15;3.75;;;7.90;99.90;;;;;;5033942;28;20045;-64
2023/10/19 03:29:30;;;;;;;6.57;3.95;;;7.80;99.90;;;;;;5070688;28;20041;-64
2023/10/19 03:31:56;;;;;;;4.45;3.63;;;7.90;99.90;;;;;;5046960;28;20410;-65
2023/10/19 03:34:23;;;;;;;3.35;3.03;;;7.90;99.90;;;;;;5069340;28;20032;-64
2023/10/19 03:36:54;;;;;;;4.18;3.47;;;7.90;99.90;;;;;;5070848;28;20044;-64
2023/10/19 03:39:21;;;;;;;5.68;3.72;;;7.80;99.90;;;;;;5069417;28;20040;-65
2023/10/19 03:41:49;;;;;;;4.20;3.50;;;7.90;99.90;;;;;;5048295;28;20044;-64
2023/10/19 03:44:24;;;;;;;4.63;3.83;;;7.80;99.90;;;;;;5051282;28;20057;-65
2023/10/19 03:46:57;;;;;;;4.68;2.97;;;7.90;99.90;;;;;;5055064;28;20497;-65
2023/10/19 03:49:33;;;;;;;2.85;2.65;;;7.80;99.90;;;;;;5070518;28;20047;-65
2023/10/19 03:52:00;;;;;;;3.08;2.78;;;7.90;99.90;;;;;;5068747;28;20044;-65
2023/10/19 03:54:27;;;;;;;3.22;2.90;;;7.90;99.90;;;;;;5059063;28;20052;-65
2023/10/19 03:56:55;;;;;;;3.00;2.80;;;7.80;99.90;;;;;;5022951;28;20092;-65
2023/10/19 03:59:21;;;;;;;3.05;2.13;;;7.90;99.90;;;;;;5070171;28;20127;-65
2023/10/19 04:01:47;;;;;;;2.50;2.28;;;7.90;99.90;;;;;;5063176;28;20115;-65
2023/10/19 04:04:16;;;;;;;5.28;2.15;;;7.80;99.90;;;;;;5069263;28;20049;-65
2023/10/19 04:06:47;;;;;;;2.78;2.47;;;7.80;99.90;;;;;;5055570;28;20033;-65
2023/10/19 04:09:17;;;;;;;3.00;2.80;;;7.90;99.90;;;;;;5044734;28;20052;-65
2023/10/19 04:11:49;;;;;;;2.65;2.45;;;7.90;99.90;;;;;;5058305;28;20093;-65
2023/10/19 04:14:16;;;;;;;3.20;2.42;;;7.90;99.90;;;;;;5068646;28;20041;-65
2023/10/19 04:16:45;;;;;;;2.88;2.60;;;7.90;99.90;;;;;;5068612;28;20122;-65
2023/10/19 04:19:11;;;;;;;2.58;2.00;;;7.90;99.90;;;;;;5045697;28;20040;-65
2023/10/19 04:21:46;;;;;;;2.30;2.08;;;7.90;99.90;;;;;;5062515;28;20041;-66
2023/10/19 04:24:13;;;;;;;2.28;2.08;;;7.90;99.90;;;;;;5063556;28;20047;-65
2023/10/19 04:26:39;;;;;;;1.92;1.67;;;7.90;99.90;;;;;;5067568;28;20036;-65
2023/10/19 04:29:10;;;;;;;2.67;2.25;;;7.80;99.90;;;;;;5069985;28;20122;-65
2023/10/19 04:31:54;;;;;;;2.45;2.30;;;7.90;99.90;;;;;;5056479;28;20040;-65
2023/10/19 04:34:21;;;;;;;2.22;2.13;;;7.80;99.90;;;;;;5040105;28;20150;-70
2023/10/19 04:36:50;;;;;;;1.90;1.80;;;7.90;99.90;;;;;;5069173;28;20096;-64
2023/10/19 04:39:19;;;;;;;2.15;2.05;;;7.90;99.90;;;;;;5050135;28;20059;-65
2023/10/19 04:41:45;;;;;;;1.80;1.70;;;7.90;99.90;;;;;;5069592;28;20036;-65
2023/10/19 04:44:11;;;;;;;1.70;1.60;;;7.80;99.90;;;;;;5063433;28;20526;-65
2023/10/19 04:46:37;;;;;;;2.65;1.85;;;7.90;99.90;;;;;;5069070;28;20051;-65
2023/10/19 04:49:03;;;;;;;2.20;2.10;;;7.80;99.90;;;;;;5068465;28;20040;-65
2023/10/19 04:51:29;;;;;;;1.52;1.42;;;7.90;99.90;;;;;;5068928;28;20517;-65
2023/10/19 04:53:55;;;;;;;2.50;2.30;;;7.90;99.90;;;;;;5068791;28;20459;-66
2023/10/19 04:56:22;;;;;;;2.20;1.80;;;7.90;99.90;;;;;;5052382;28;20115;-65
2023/10/19 04:58:48;;;;;;;2.42;2.25;;;7.80;99.90;;;;;;5065311;28;20113;-65
2023/10/19 05:01:14;;;;;;;2.38;2.20;;;7.80;99.90;;;;;;5055147;28;20452;-65
2023/10/19 05:03:41;;;;;;;2.17;2.00;;;7.80;99.90;;;;;;5047001;28;20063;-65
2023/10/19 05:06:07;;;;;;;2.05;1.95;;;7.80;99.90;;;;;;5032715;28;20083;-65
2023/10/19 05:08:33;;;;;;;2.25;2.15;;;7.80;99.90;;;;;;5069208;28;20051;-65
2023/10/19 05:10:59;;;;;;;2.10;1.88;;;7.90;99.90;;;;;;5051010;28;20041;-64
2023/10/19 05:13:26;;;;;;;1.98;1.88;;;7.80;99.90;;;;;;5034989;28;20045;-64
2023/10/19 05:15:56;;;;;;;2.00;1.90;;;7.80;99.90;;;;;;5044906;28;20115;-64
2023/10/19 05:18:22;;;;;;;2.55;1.67;;;7.80;99.90;;;;;;5039680;28;20472;-65
2023/10/19 05:20:49;;;;;;;2.35;2.15;;;7.90;99.90;;;;;;5047691;28;20048;-65
2023/10/19 05:23:15;;;;;;;1.35;1.35;;;7.80;99.90;;;;;;5047105;28;20045;-65
2023/10/19 05:25:41;;;;;;;2.42;2.00;;;7.80;99.90;;;;;;5047912;28;20090;-64
2023/10/19 05:28:07;;;;;;;1.55;1.55;;;7.80;99.90;;;;;;5046266;28;20059;-64
2023/10/19 05:30:35;;;;;;;1.70;1.60;;;7.90;99.90;;;;;;5030345;28;20061;-65
2023/10/19 05:33:03;;;;;;;1.73;1.63;;;7.80;99.90;;;;;;5016839;28;20495;-64
2023/10/19 05:35:30;;;;;;;1.88;1.77;;;7.80;99.90;;;;;;5047075;28;20045;-65
2023/10/19 05:37:56;;;;;;;1.63;1.52;;;7.80;99.90;;;;;;5047824;28;20040;-65
2023/10/19 05:40:31;;;;;;;1.77;1.67;;;7.80;99.90;;;;;;5019844;28;20045;-65
2023/10/19 05:42:57;;;;;;;1.40;1.40;;;7.90;99.90;;;;;;5047891;28;20932;-64
2023/10/19 05:45:24;;;;;;;1.33;1.25;;;7.80;99.90;;;;;;5046833;28;20057;-65
2023/10/19 05:47:50;;;;;;;1.48;1.38;;;7.90;99.90;;;;;;5047344;28;20199;-64
2023/10/19 05:50:16;;;;;;;2.05;1.92;;;7.90;99.90;;;;;;5047914;28;20458;-64
2023/10/19 05:52:43;;;;;;;4.07;1.30;;;7.80;99.90;;;;;;5040457;28;20052;-64
2023/10/19 05:55:12;;;;;;;6.20;1.45;;;7.80;99.90;;;;;;5048148;28;20052;-64
2023/10/19 05:57:40;;;;;;;1.38;1.25;;;7.80;99.90;;;;;;5046881;28;20380;-64
2023/10/19 06:00:12;;;;;;;4.00;1.42;;;7.80;99.90;;;;;;5047496;28;20056;-65
2023/10/19 06:02:51;;;;;;;1.95;1.52;;;7.80;99.90;;;;;;5040741;28;20068;-65
2023/10/19 06:05:18;;;;;;;1.13;1.13;;;7.80;99.90;;;;;;5045456;28;20048;-64
2023/10/19 06:07:48;;;;;;;2.90;1.40;;;7.80;99.90;;;;;;5047825;28;20491;-64
2023/10/19 06:10:20;;;;;;;3.05;1.40;;;7.80;99.90;;;;;;5046341;28;20133;-65
2023/10/19 06:12:47;;;;;;;1.50;1.40;;;7.80;99.90;;;;;;5065380;28;20041;-64
2023/10/19 06:15:15;;;;;;;1.30;1.30;;;7.70;99.90;;;;;;5066276;28;20513;-65
2023/10/19 06:17:41;;;;;;;1.70;1.30;;;7.80;99.90;;;;;;5062306;28;20094;-64
2023/10/19 06:20:23;;;;;;;1.00;1.00;;;7.70;99.90;;;;;;5066243;28;20314;-64
2023/10/19 06:22:52;;;;;;;1.50;1.40;;;7.70;99.90;;;;;;5066282;28;20507;-65
2023/10/19 06:25:22;;;;;;;1.45;1.25;;;7.80;99.90;;;;;;5056409;28;20103;-64
2023/10/19 06:27:49;;;;;;;1.60;1.38;;;7.80;99.90;;;;;;5055701;28;20476;-64
2023/10/19 06:30:19;;;;;;;1.00;0.88;;;7.80;99.90;;;;;;5067981;28;20109;-65
2023/10/19 06:32:48;;;;;;;;;;;7.70;99.90;;;;;;5060983;28;20123;-64
2023/10/19 06:35:14;;;;;;;1.00;1.00;;;7.70;99.90;;;;;;5040070;28;19932;-65
2023/10/19 06:37:40;;;;;;;1.30;1.30;;;7.70;99.90;;;;;;5067148;28;20120;-65
2023/10/19 06:40:06;;;;;;;1.70;1.60;;;7.70;99.90;;;;;;5065886;28;20127;-68
2023/10/19 06:42:32;;;;;;;1.65;1.55;;;7.70;99.90;;;;;;5057455;28;20546;-64
2023/10/19 06:44:58;;;;;;;1.70;1.60;;;7.70;99.90;;;;;;5045911;28;20552;-64
2023/10/19 06:47:24;;;;;;;1.52;1.40;;;7.70;99.90;;;;;;5059065;28;20096;-65
2023/10/19 06:49:50;;;;;;;1.45;1.38;;;7.70;99.90;;;;;;5044799;28;20116;-65
2023/10/19 06:52:15;;;;;;;1.55;1.40;;;7.80;99.90;;;;;;5032691;28;20056;-65
2023/10/19 06:54:41;;;;;;;1.58;1.48;;;7.70;99.90;;;;;;5066332;28;20465;-64
2023/10/19 06:57:08;;;;;;;1.52;1.42;;;7.70;99.90;;;;;;5066626;28;20549;-64
2023/10/19 06:59:36;;;;;;;1.38;1.27;;;7.70;99.90;;;;;;5063971;28;20080;-64
2023/10/19 07:02:02;;;;;;;1.40;1.30;;;7.80;99.90;;;;;;5049046;28;20372;-64
2023/10/19 07:04:31;;;;;;;2.22;2.03;;;7.80;99.90;;;;;;5047212;28;20106;-65
2023/10/19 07:06:57;;;;;;;2.67;1.80;;;7.70;99.90;;;;;;5044921;28;20037;-64
2023/10/19 07:09:23;;;;;;;1.65;1.55;;;7.80;99.90;;;;;;5046740;28;20475;-64
2023/10/19 07:11:53;;;;;;;1.90;1.60;;;7.80;99.90;;;;;;5007138;28;20041;-65
2023/10/19 07:14:22;;;;;;;1.08;1.08;;;7.80;99.90;;;;;;5046934;28;20049;-64
2023/10/19 07:16:51;;;;;;;1.75;1.65;;;7.80;99.90;;;;;;5046043;28;20049;-65
2023/10/19 07:19:18;;;;;;;1.63;1.47;;;7.80;99.90;;;;;;5044266;28;20049;-64
2023/10/19 07:21:48;;;;;;;1.58;1.48;;;7.80;99.90;;;;;;5021468;28;20116;-64
2023/10/19 07:24:14;;;;;;;1.80;1.70;;;7.70;99.90;;;;;;5039462;28;20099;-69
2023/10/19 07:26:53;;;;;;;1.63;1.52;;;7.70;99.90;;;;;;5047056;28;20033;-65
2023/10/19 07:29:22;;;;;;;1.40;1.30;;;7.80;99.90;;;;;;5045618;28;20049;-64
2023/10/19 07:31:48;;;;;;;1.20;1.20;;;7.80;99.90;;;;;;5006877;28;20044;-64
2023/10/19 07:34:15;;;;;;;1.35;1.25;;;7.80;99.90;;;;;;5025367;28;20128;-64
2023/10/19 07:36:42;;;;;;;1.45;1.35;;;7.80;99.90;;;;;;5045416;28;20045;-64
2023/10/19 07:39:13;;;;;;;1.10;1.10;;;7.80;99.90;;;;;;5046785;28;20131;-64
2023/10/19 07:41:40;;;;;;;0.90;0.90;;;7.80;99.90;;;;;;5017424;28;20125;-64
2023/10/19 07:44:06;;;;;;;2.78;1.17;;;7.90;99.90;;;;;;5035221;28;20491;-64
2023/10/19 07:46:31;;;;;;;1.05;0.93;;;7.90;99.90;;;;;;5044746;28;20365;-64
2023/10/19 07:49:00;;;;;;;0.80;0.80;;;7.90;99.90;;;;;;5028565;28;20084;-64
2023/10/19 07:51:26;;;;;;;1.08;1.08;;;7.80;99.90;;;;;;5045531;28;20055;-65
2023/10/19 07:53:52;;;;;;;1.00;1.00;;;7.80;99.90;;;;;;5031292;28;20056;-64
2023/10/19 07:56:19;;;;;;;1.15;1.08;;;7.90;99.90;;;;;;5045937;28;20076;-64
2023/10/19 07:58:45;;;;;;;1.10;1.10;;;7.90;99.90;;;;;;5046107;28;20045;-64
2023/10/19 08:01:11;;;;;;;0.70;0.70;;;7.90;99.90;;;;;;5032092;28;20056;-64
2023/10/19 08:03:37;;;;;;;0.82;0.82;;;7.90;99.90;;;;;;5029617;28;20506;-64
2023/10/19 08:06:04;;;;;;;2.15;0.90;;;7.80;99.90;;;;;;5048069;28;20029;-64
2023/10/19 08:08:34;;;;;;;0.75;0.75;;;7.80;99.90;;;;;;5043727;28;20037;-64
2023/10/19 08:11:00;;;;;;;0.98;0.98;;;7.80;99.90;;;;;;5049216;28;20049;-64
2023/10/19 08:13:27;;;;;;;1.00;1.00;;;7.90;99.90;;;;;;5049754;28;20072;-64
2023/10/19 08:15:52;;;;;;;1.00;1.00;;;7.80;99.90;;;;;;5047012;28;20041;-64
2023/10/19 08:18:18;;;;;;;0.95;0.95;;;7.80;99.90;;;;;;5049119;28;20098;-64
2023/10/19 08:20:49;;;;;;;1.00;1.00;;;7.90;99.90;;;;;;5030389;28;20051;-64
2023/10/19 08:23:16;;;;;;;;;;;7.90;99.90;;;;;;5049762;28;20053;-64
2023/10/19 08:25:44;;;;;;;0.95;0.90;;;8.00;99.90;;;;;;5048877;28;19929;-64
2023/10/19 08:28:11;;;;;;;0.80;0.80;;;7.80;99.90;;;;;;5041850;28;20037;-69
2023/10/19 08:30:37;;;;;;;1.10;1.00;;;8.00;99.90;;;;;;5048734;28;20437;-64
2023/10/19 08:33:03;;;;;;;0.50;0.50;;;7.90;99.90;;;;;;5047268;28;20056;-64
2023/10/19 08:35:30;;;;;;;0.70;0.70;;;7.90;99.90;;;;;;5048903;28;20074;-64
2023/10/19 08:37:57;;;;;;;0.70;0.70;;;7.90;99.90;;;;;;5029599;28;20049;-65
2023/10/19 08:40:26;;;;;;;1.00;1.00;;;8.00;99.90;;;;;;5032172;28;20060;-64
2023/10/19 08:42:53;;;;;;;0.73;0.73;;;8.00;99.90;;;;;;5047986;28;20046;-64
2023/10/19 08:45:21;;;;;;;0.80;0.80;;;8.00;99.90;;;;;;5003475;28;20520;-64
2023/10/19 08:47:58;;;;;;;0.65;0.65;;;8.00;99.90;;;;;;5027855;28;20045;-64
2023/10/19 08:50:29;;;;;;;0.82;0.82;;;7.90;99.90;;;;;;5026632;28;20514;-64
2023/10/19 08:52:57;;;;;;;0.60;0.60;;;7.90;99.90;;;;;;5018682;28;20522;-64
2023/10/19 08:55:23;;;;;;;0.98;0.68;;;7.90;99.90;;;;;;5020913;28;20277;-64
2023/10/19 08:57:50;;;;;;;1.23;0.90;;;8.00;99.90;;;;;;5020954;28;20041;-64
2023/10/19 09:00:18;;;;;;;0.95;0.60;;;7.90;99.90;;;;;;5027040;28;20148;-64
2023/10/19 09:02:47;;;;;;;0.70;0.70;;;8.00;99.90;;;;;;4993145;28;20050;-64
2023/10/19 09:05:22;;;;;;;0.52;0.52;;;8.00;99.90;;;;;;5027432;28;20053;-64
2023/10/19 09:07:59;;;;;;;0.90;0.90;;;8.00;99.90;;;;;;5026916;28;20073;-64
2023/10/19 09:10:26;;;;;;;0.80;0.80;;;8.00;99.90;;;;;;5024598;28;20103;-64
2023/10/19 09:13:09;;;;;;;0.80;0.80;;;8.00;99.90;;;;;;5025090;28;20084;-64
2023/10/19 09:15:39;;;;;;;0.90;0.90;;;8.00;99.90;;;;;;5027578;28;20099;-65
2023/10/19 09:18:31;;;;;;;0.70;0.70;;;8.00;99.90;;;;;;5028152;28;20551;-64
2023/10/19 09:21:07;;;;;;;0.68;0.68;;;8.10;99.90;;;;;;5023230;28;20569;-79
2023/10/19 09:23:33;;;;;;;1.63;0.85;;;8.10;99.90;;;;;;5008261;28;20061;-64
2023/10/19 09:26:03;;;;;;;0.77;0.77;;;8.10;99.90;;;;;;5008718;28;20057;-64
2023/10/19 09:28:33;;;;;;;0.68;0.68;;;8.10;99.90;;;;;;5028140;28;20107;-65
2023/10/19 09:31:00;;;;;;;0.50;0.50;;;8.10;99.90;;;;;;5027314;28;20040;-66
2023/10/19 09:33:27;;;;;;;0.50;0.50;;;8.20;99.90;;;;;;5020633;28;20095;-65
2023/10/19 09:35:56;;;;;;;0.70;0.70;;;8.10;99.90;;;;;;5021344;28;20488;-65
2023/10/19 09:38:22;;;;;;;0.47;0.47;;;8.20;99.90;;;;;;5006216;28;20128;-65
2023/10/19 09:40:51;;;;;;;1.02;0.60;;;8.10;99.90;;;;;;5028273;28;20083;-64
2023/10/19 09:43:35;;;;;;;0.90;0.90;;;8.20;99.90;;;;;;5021504;28;20049;-64
2023/10/19 09:46:07;;;;;;;0.73;0.73;;;8.20;99.90;;;;;;5042063;28;20150;-65
2023/10/19 09:48:42;;;;;;;0.55;0.55;;;8.10;99.90;;;;;;5046207;28;20476;-65
2023/10/19 09:51:09;;;;;;;0.40;0.40;;;8.10;99.90;;;;;;5043213;28;20495;-65
2023/10/19 09:53:37;;;;;;;0.60;0.60;;;8.20;99.90;;;;;;5024344;28;20561;-65
2023/10/19 09:56:12;;;;;;;0.40;0.40;;;8.20;99.90;;;;;;5037145;28;20041;-65
2023/10/19 09:58:59;;;;;;;0.75;0.75;;;8.20;99.90;;;;;;5044865;28;20495;-65
2023/10/19 10:01:26;;;;;;;0.88;0.50;;;8.20;99.90;;;;;;5040788;28;20057;-65
2023/10/19 10:03:52;;;;;;;0.60;0.60;;;8.20;99.90;;;;;;5046380;28;20124;-65
2023/10/19 10:06:29;;;;;;;0.80;0.80;;;8.30;99.90;;;;;;5045145;28;20082;-65
2023/10/19 10:08:56;;;;;;;0.50;0.50;;;8.30;99.90;;;;;;5042358;28;20490;-65
2023/10/19 10:11:24;;;;;;;0.75;0.75;;;8.20;99.90;;;;;;5041070;28;20033;-65
2023/10/19 10:13:50;;;;;;;0.52;0.52;;;8.20;99.90;;;;;;5051703;28;20562;-65
2023/10/19 10:16:25;;;;;;;0.43;0.43;;;8.30;99.90;;;;;;5056250;28;20130;-65
2023/10/19 10:19:00;;;;;;;0.60;0.60;;;8.30;99.90;;;;;;5026267;28;20109;-64
2023/10/19 10:21:28;;;;;;;0.50;0.50;;;8.30;99.90;;;;;;5057854;28;20428;-65
2023/10/19 10:23:59;;;;;;;0.68;0.68;;;8.40;99.90;;;;;;5061493;28;20132;-65
2023/10/19 10:26:29;;;;;;;0.60;0.60;;;8.30;99.90;;;;;;5045524;28;20486;-64
2023/10/19 10:29:19;;;;;;;0.50;0.50;;;8.40;99.90;;;;;;5044992;28;20132;-65
2023/10/19 10:31:47;;;;;;;0.60;0.60;;;8.30;99.90;;;;;;5045634;28;20091;-64
2023/10/19 10:34:37;;;;;;;1.67;0.60;;;8.40;99.90;;;;;;5045770;28;20105;-65
2023/10/19 10:37:11;;;;;;;0.38;0.38;;;8.40;99.90;;;;;;5034948;28;20041;-64
2023/10/19 10:39:39;;;;;;;0.50;0.50;;;8.30;99.90;;;;;;5040902;28;20048;-65
2023/10/19 10:42:07;;;;;;;0.80;0.63;;;8.40;99.90;;;;;;5047650;28;20581;-65
2023/10/19 10:44:44;;;;;;;0.65;0.65;;;8.40;99.90;;;;;;5019018;28;20052;-64
2023/10/19 10:47:16;;;;;;;0.70;0.70;;;8.30;99.90;;;;;;5034970;28;20056;-65
2023/10/19 10:49:55;;;;;;;1.10;0.60;;;8.30;99.90;;;;;;5020247;28;20468;-64
2023/10/19 10:52:25;;;;;;;0.60;0.60;;;8.30;99.90;;;;;;5034688;28;20083;-64
2023/10/19 10:54:51;;;;;;;0.77;0.70;;;8.40;99.90;;;;;;5044116;28;20166;-64
2023/10/19 10:57:18;;;;;;;0.50;0.50;;;8.40;99.90;;;;;;5045784;28;20045;-64
2023/10/19 10:59:43;;;;;;;1.10;0.70;;;8.40;99.90;;;;;;5041833;28;20048;-64
2023/10/19 11:02:18;;;;;;;1.00;0.70;;;8.40;99.90;;;;;;5028305;28;20053;-65
2023/10/19 11:04:45;;;;;;;0.50;0.50;;;8.40;99.90;;;;;;5044417;28;20856;-65
2023/10/19 11:07:19;;;;;;;0.40;0.40;;;8.40;99.90;;;;;;5039455;28;20040;-65
2023/10/19 11:09:48;;;;;;;0.85;0.60;;;8.40;99.90;;;;;;5040969;28;20162;-65
2023/10/19 11:12:19;;;;;;;0.57;0.57;;;8.50;99.90;;;;;;5026328;28;20128;-65
2023/10/19 11:14:54;;;;;;;0.60;0.60;;;8.50;99.90;;;;;;5043277;28;20475;-64
2023/10/19 11:17:27;;;;;;;0.52;0.52;;;8.50;99.90;;;;;;5026718;28;20056;-65
2023/10/19 11:19:56;;;;;;;3.25;0.80;;;8.50;99.90;;;;;;5041143;28;20407;-65
2023/10/19 11:22:24;;;;;;;0.60;0.60;;;8.50;99.90;;;;;;5041413;28;20398;-65
2023/10/19 11:24:52;;;;;;;0.68;0.68;;;8.50;99.90;;;;;;5041819;28;20465;-65
2023/10/19 11:27:28;;;;;;;1.00;0.90;;;8.50;99.90;;;;;;5011849;28;20355;-65
2023/10/19 11:29:59;;;;;;;0.65;0.50;;;8.50;99.90;;;;;;5023764;28;20057;-65
2023/10/19 11:32:25;;;;;;;0.55;0.52;;;8.50;99.90;;;;;;5040566;28;20106;-65
2023/10/19 11:34:53;;;;;;;0.40;0.40;;;8.50;99.90;;;;;;5043221;28;20033;-65
2023/10/19 11:37:19;;;;;;;1.40;0.80;;;8.50;99.90;;;;;;5045721;28;20053;-65
2023/10/19 11:39:45;;;;;;;0.75;0.45;;;8.50;99.90;;;;;;5045062;28;20049;-66
2023/10/19 11:42:12;;;;;;;0.60;0.60;;;8.40;99.90;;;;;;5028063;28;20526;-65
2023/10/19 11:44:39;;;;;;;0.50;0.50;;;8.40;99.90;;;;;;5053015;28;20613;-65
2023/10/19 11:47:05;;;;;;;0.60;0.60;;;8.50;99.90;;;;;;5030502;28;20124;-66
2023/10/19 11:49:30;;;;;;;0.68;0.50;;;8.40;99.90;;;;;;5048696;28;20083;-65
2023/10/19 11:51:57;;;;;;;3.03;0.68;;;8.40;99.90;;;;;;5041093;28;20048;-65
2023/10/19 11:54:23;;;;;;;1.20;0.80;;;8.50;99.90;;;;;;5046074;28;20072;-65
2023/10/19 11:56:49;;;;;;;2.47;0.50;;;8.40;99.90;;;;;;5055035;28;20071;-65
2023/10/19 11:59:15;;;;;;;0.77;0.77;;;8.40;99.90;;;;;;5050167;28;20129;-65
2023/10/19 12:01:42;;;;;;;0.82;0.73;;;8.50;99.90;;;;;;5044059;28;20049;-65
2023/10/19 12:04:09;;;;;;;0.50;0.50;;;8.40;99.90;;;;;;5049607;28;20095;-65
2023/10/19 12:06:35;;;;;;;0.60;0.60;;;8.40;99.90;;;;;;5056274;28;20052;-65
2023/10/19 12:09:14;;;;;;;3.88;0.65;;;8.40;99.90;;;;;;5049395;28;20135;-65
2023/10/19 12:11:40;;;;;;;2.40;1.10;;;8.50;99.90;;;;;;5042946;28;20608;-65
2023/10/19 12:14:11;;;;;;;1.67;0.77;;;8.40;99.90;;;;;;5029603;28;20099;-64
2023/10/19 12:16:39;;;;;;;0.68;0.68;;;8.50;99.90;;;;;;5062942;28;20368;-64
2023/10/19 12:19:05;;;;;;;0.70;0.70;;;8.50;99.90;;;;;;5044653;28;20049;-65
2023/10/19 12:21:31;;;;;;;0.50;0.50;;;8.50;99.90;;;;;;5060019;28;20040;-65
2023/10/19 12:23:59;;;;;;;0.75;0.75;;;8.50;99.90;;;;;;5047110;28;20049;-64
2023/10/19 12:26:25;;;;;;;0.50;0.50;;;8.50;99.90;;;;;;5046586;28;20425;-64
2023/10/19 12:28:51;;;;;;;0.68;0.68;;;8.50;99.90;;;;;;5054965;28;20095;-64
2023/10/19 12:31:18;;;;;;;0.77;0.77;;;8.60;99.90;;;;;;5051338;28;20069;-64
2023/10/19 12:33:44;;;;;;;0.65;0.60;;;8.50;99.90;;;;;;5047359;28;20099;-65
2023/10/19 12:38:49;;;;;;;0.70;0.70;;;8.50;99.90;;;;;;5052128;28;20048;-64
2023/10/19 12:41:15;;;;;;;0.75;0.70;;;8.50;99.90;;;;;;5061595;28;20137;-64
2023/10/19 12:43:41;;;;;;;0.60;0.60;;;8.50;99.90;;;;;;5059625;28;20135;-64
2023/10/19 12:46:08;;;;;;;0.70;0.70;;;8.50;99.90;;;;;;5045024;28;20073;-64
2023/10/19 12:48:35;;;;;;;0.68;0.68;;;8.60;99.90;;;;;;5057587;28;20048;-64
2023/10/19 12:51:01;;;;;;;2.95;0.63;;;8.60;99.90;;;;;;5057464;28;20033;-64
2023/10/19 12:53:27;;;;;;;0.68;0.68;;;8.70;99.90;;;;;;5036322;28;20084;-64
2023/10/19 12:55:53;;;;;;;1.77;0.63;;;8.70;99.90;;;;;;5047221;28;20438;-64
2023/10/19 12:58:20;;;;;;;0.47;0.47;;;8.70;99.90;;;;;;5061275;28;20039;-66
2023/10/19 13:00:48;;;;;;;1.08;0.82;;;8.60;99.90;;;;;;5028712;28;20076;-74
2023/10/19 13:03:15;;;;;;;0.43;0.43;;;8.60;99.90;;;;;;5053807;28;20449;-66
2023/10/19 13:05:44;;;;;;;0.50;0.47;;;8.70;99.90;;;;;;5044307;28;20090;-66
2023/10/19 13:08:14;;;;;;;0.73;0.73;;;8.70;99.90;;;;;;5049002;28;20087;-65
2023/10/19 13:10:45;;;;;;;0.50;0.50;;;8.70;99.90;;;;;;5046584;28;20065;-66
2023/10/19 13:13:14;;;;;;;1.30;0.77;;;8.60;99.90;;;;;;5040494;28;20538;-66
2023/10/19 13:15:45;;;;;;;0.50;0.50;;;8.70;99.90;;;;;;5037396;28;20139;-66
2023/10/19 13:18:24;;;;;;;1.75;0.70;;;8.70;99.90;;;;;;5034867;28;20490;-67
2023/10/19 13:20:54;;;;;;;0.65;0.65;;;8.60;99.90;;;;;;5054438;28;20051;-66
2023/10/19 13:23:23;;;;;;;1.35;0.57;;;8.60;99.90;;;;;;5036979;28;20052;-68
2023/10/19 13:25:50;;;;;;;0.70;0.70;;;8.60;99.90;;;;;;5050898;28;20681;-66
2023/10/19 13:28:17;;;;;;;0.75;0.70;;;8.50;99.90;;;;;;5031394;28;20087;-65